createdAt,value
2019-01-24T00:01:57.399Z,34.67
2019-01-24T00:04:27.737Z,28.33
2019-01-24T00:06:58.411Z,29.00
2019-01-24T00:09:29.147Z,30.23
2019-01-24T00:11:59.857Z,30.50
2019-01-24T00:14:30.328Z,29.37
2019-01-24T00:17:01.680Z,30.60
2019-01-24T00:19:33.254Z,28.67
2019-01-24T00:22:03.731Z,31.57
2019-01-24T00:24:34.569Z,29.60
2019-01-24T00:27:05.093Z,27.80
2019-01-24T00:29:35.398Z,30.00
2019-01-24T00:32:05.723Z,30.83
2019-01-24T00:34:36.227Z,29.83
2019-01-24T00:37:06.652Z,28.83
2019-01-24T00:39:39.533Z,28.73
2019-01-24T00:42:09.956Z,34.23
2019-01-24T00:44:40.331Z,28.43
2019-01-24T00:47:12.667Z,33.77
2019-01-24T00:49:43.492Z,28.10
2019-01-24T00:52:16.027Z,27.63
2019-01-24T00:54:48.382Z,33.93
2019-01-24T00:57:19.355Z,27.33
2019-01-24T00:59:49.772Z,32.13
2019-01-24T01:02:20.244Z,26.90
2019-01-24T01:04:50.753Z,26.87
2019-01-24T01:07:21.286Z,32.73
2019-01-24T01:09:53.095Z,25.53
2019-01-24T01:12:23.750Z,31.67
2019-01-24T01:14:54.151Z,26.17
2019-01-24T01:17:24.753Z,26.97
2019-01-24T01:19:55.212Z,27.37
2019-01-24T01:22:28.345Z,26.50
2019-01-24T01:24:58.690Z,31.77
2019-01-24T01:27:30.525Z,25.70
2019-01-24T01:30:00.985Z,27.53
2019-01-24T01:32:31.523Z,28.37
2019-01-24T01:35:01.909Z,27.93
2019-01-24T01:37:32.324Z,26.83
2019-01-24T01:40:04.370Z,25.77
2019-01-24T01:42:34.699Z,24.53
2019-01-24T01:45:06.717Z,24.47
2019-01-24T01:47:37.071Z,25.60
2019-01-24T01:50:10.001Z,29.00
2019-01-24T01:52:40.352Z,24.30
2019-01-24T01:55:11.235Z,31.40
2019-01-24T01:57:41.710Z,24.77
2019-01-24T02:00:17.474Z,23.87
2019-01-24T02:02:48.104Z,24.37
2019-01-24T02:05:19.084Z,23.30
2019-01-24T02:07:49.994Z,25.40
2019-01-24T02:10:23.384Z,24.67
2019-01-24T02:12:54.255Z,24.13
2019-01-24T02:15:25.065Z,26.67
2019-01-24T02:17:55.883Z,25.87
2019-01-24T02:20:27.372Z,25.57
2019-01-24T02:22:58.195Z,26.70
2019-01-24T02:25:28.537Z,26.27
2019-01-24T02:27:58.989Z,24.23
2019-01-24T02:30:30.756Z,26.87
2019-01-24T02:33:01.163Z,25.07
2019-01-24T02:35:31.477Z,24.97
2019-01-24T02:38:02.131Z,25.30
2019-01-24T02:40:32.481Z,24.87
2019-01-24T02:43:02.885Z,26.57
2019-01-24T02:45:33.912Z,23.90
2019-01-24T02:48:07.426Z,24.43
2019-01-24T02:50:38.048Z,24.20
2019-01-24T02:53:08.618Z,26.80
2019-01-24T02:55:39.130Z,26.50
2019-01-24T02:58:09.649Z,25.47
2019-01-24T03:00:40.127Z,26.13
2019-01-24T03:03:10.695Z,26.13
2019-01-24T03:05:41.242Z,25.17
2019-01-24T03:08:13.772Z,25.50
2019-01-24T03:10:46.339Z,25.00
2019-01-24T03:13:16.631Z,24.53
2019-01-24T03:15:48.881Z,25.93
2019-01-24T03:18:21.376Z,26.90
2019-01-24T03:20:52.203Z,25.67
2019-01-24T03:23:23.037Z,25.53
2019-01-24T03:25:53.381Z,25.00
2019-01-24T03:28:25.414Z,24.60
2019-01-24T03:30:55.919Z,25.80
2019-01-24T03:33:27.030Z,27.20
2019-01-24T03:35:57.364Z,24.90
2019-01-24T03:38:27.801Z,26.00
2019-01-24T03:40:58.221Z,25.30
2019-01-24T03:43:28.617Z,25.13
2019-01-24T03:45:59.336Z,25.43
2019-01-24T03:48:29.720Z,26.10
2019-01-24T03:51:00.517Z,25.27
2019-01-24T03:53:36.423Z,26.23
2019-01-24T03:56:09.771Z,26.17
2019-01-24T03:58:41.887Z,26.53
2019-01-24T04:01:12.401Z,25.20
2019-01-24T04:03:42.847Z,26.30
2019-01-24T04:06:13.269Z,26.90
2019-01-24T04:08:45.819Z,24.63
2019-01-24T04:11:16.278Z,24.53
2019-01-24T04:13:49.481Z,25.30
2019-01-24T04:16:19.856Z,24.13
2019-01-24T04:18:52.505Z,25.77
2019-01-24T04:21:40.240Z,26.90
2019-01-24T04:24:10.854Z,26.13
2019-01-24T04:26:45.610Z,24.67
2019-01-24T04:29:16.085Z,26.73
2019-01-24T04:31:46.574Z,26.20
2019-01-24T04:34:17.589Z,24.37
2019-01-24T04:36:48.402Z,24.47
2019-01-24T04:39:19.231Z,25.20
2019-01-24T04:41:50.192Z,25.40
2019-01-24T04:44:22.361Z,25.73
2019-01-24T04:46:52.845Z,24.80
2019-01-24T04:49:23.646Z,25.97
2019-01-24T04:51:54.035Z,26.23
2019-01-24T04:54:24.599Z,25.80
2019-01-24T04:56:55.111Z,24.30
2019-01-24T04:59:26.296Z,24.93
2019-01-24T05:01:56.701Z,26.10
2019-01-24T05:04:29.334Z,26.27
2019-01-24T05:07:01.419Z,25.03
2019-01-24T05:09:31.840Z,24.50
2019-01-24T05:12:02.175Z,25.87
2019-01-24T05:14:32.916Z,25.60
2019-01-24T05:17:03.342Z,26.03
2019-01-24T05:19:37.050Z,24.47
2019-01-24T05:22:08.889Z,25.00
2019-01-24T05:24:40.869Z,24.73
2019-01-24T05:27:11.327Z,25.63
2019-01-24T05:29:41.835Z,26.67
2019-01-24T05:32:12.238Z,29.83
2019-01-24T05:34:42.938Z,26.03
2019-01-24T05:37:13.405Z,25.47
2019-01-24T05:39:43.830Z,25.90
2019-01-24T05:42:15.757Z,25.53
2019-01-24T05:44:46.117Z,26.63
2019-01-24T05:47:16.470Z,25.10
2019-01-24T05:49:46.795Z,25.33
2019-01-24T05:52:19.683Z,25.23
2019-01-24T05:54:49.733Z,27.63
2019-01-24T05:57:20.082Z,27.00
2019-01-24T05:59:50.405Z,25.90
2019-01-24T06:02:20.732Z,26.13
2019-01-24T06:05:33.036Z,25.53
2019-01-24T06:07:35.254Z,26.87
2019-01-24T06:10:13.696Z,24.23
2019-01-24T06:12:44.136Z,24.43
2019-01-24T06:15:16.089Z,25.60
2019-01-24T06:17:46.635Z,24.70
2019-01-24T06:20:17.147Z,26.43
2019-01-24T06:22:56.020Z,26.10
2019-01-24T06:25:28.285Z,29.07
2019-01-24T06:27:59.096Z,24.57
2019-01-24T06:30:35.008Z,24.27
2019-01-24T06:33:11.748Z,25.60
2019-01-24T06:35:53.035Z,24.57
2019-01-24T06:38:30.741Z,23.90
2019-01-24T06:41:10.699Z,23.97
2019-01-24T06:43:41.677Z,23.23
2019-01-24T06:46:11.768Z,26.40
2019-01-24T06:48:44.004Z,24.60
2019-01-24T06:51:15.756Z,24.47
2019-01-24T06:53:46.249Z,23.53
2019-01-24T06:56:16.631Z,24.53
2019-01-24T06:58:50.728Z,24.53
2019-01-24T07:01:23.611Z,23.97
2019-01-24T07:03:56.646Z,25.17
2019-01-24T07:06:28.607Z,24.10
2019-01-24T07:09:04.363Z,24.43
2019-01-24T07:11:36.170Z,23.73
2019-01-24T07:14:08.868Z,23.73
2019-01-24T07:16:42.728Z,24.40
2019-01-24T07:19:15.064Z,25.13
2019-01-24T07:22:02.008Z,25.40
2019-01-24T07:24:32.558Z,25.07
2019-01-24T07:27:04.751Z,23.60
2019-01-24T07:29:36.625Z,23.27
2019-01-24T07:32:09.970Z,24.50
2019-01-24T07:34:56.436Z,23.17
2019-01-24T07:37:27.989Z,25.33
2019-01-24T07:40:24.020Z,23.70
2019-01-24T07:42:56.616Z,23.57
2019-01-24T07:45:48.854Z,22.03
2019-01-24T07:48:24.869Z,24.97
2019-01-24T07:50:55.361Z,23.80
2019-01-24T07:53:48.278Z,23.30
2019-01-24T08:00:12.394Z,23.47
2019-01-24T08:03:25.352Z,22.20
2019-01-24T08:06:43.578Z,22.73
2019-01-24T08:09:13.999Z,26.00
2019-01-24T08:12:38.281Z,22.53
2019-01-24T08:15:25.470Z,22.30
2019-01-24T08:19:01.694Z,24.97
2019-01-24T08:29:37.628Z,22.80
2019-01-24T08:36:15.732Z,23.07
2019-01-24T08:39:09.661Z,21.40
2019-01-24T08:41:44.026Z,21.10
2019-01-24T08:44:14.567Z,21.00
2019-01-24T08:46:45.211Z,22.97
2019-01-24T08:49:16.370Z,23.20
2019-01-24T08:51:50.532Z,22.27
2019-01-24T08:54:21.046Z,21.50
2019-01-24T08:57:05.457Z,23.20
2019-01-24T08:59:37.755Z,23.53
2019-01-24T09:06:29.762Z,21.67
2019-01-24T09:12:50.426Z,24.40
2019-01-24T09:15:49.467Z,24.17
2019-01-24T09:19:14.161Z,23.83
2019-01-24T09:21:47.666Z,22.03
2019-01-24T09:24:30.262Z,22.40
2019-01-24T09:28:20.762Z,24.77
2019-01-24T09:31:37.525Z,23.50
2019-01-24T09:41:53.870Z,24.37
2019-01-24T09:49:54.345Z,23.70
2019-01-24T10:09:03.343Z,24.37
2019-01-24T10:13:52.542Z,24.60
2019-01-24T10:15:16.217Z,24.87
2019-01-24T10:18:21.530Z,24.00
2019-01-24T10:21:14.698Z,25.37
2019-01-24T10:23:49.976Z,24.47
2019-01-24T10:27:25.841Z,23.93
2019-01-24T10:30:07.930Z,22.00
2019-01-24T10:32:45.499Z,23.83
2019-01-24T10:35:29.296Z,24.30
2019-01-24T10:39:16.100Z,23.77
2019-01-24T10:41:57.728Z,23.83
2019-01-24T10:44:45.792Z,23.47
2019-01-24T10:47:32.459Z,23.87
2019-01-24T10:50:15.600Z,23.93
2019-01-24T10:53:41.353Z,23.67
2019-01-24T11:00:45.189Z,25.03
2019-01-24T11:03:22.181Z,23.80
2019-01-24T11:05:56.940Z,25.53
2019-01-24T11:08:35.092Z,24.63
2019-01-24T11:11:17.554Z,25.30
2019-01-24T11:13:49.028Z,25.10
2019-01-24T11:16:38.690Z,24.70
2019-01-24T11:19:07.723Z,24.77
2019-01-24T11:21:40.601Z,23.20
2019-01-24T11:24:11.563Z,25.50
2019-01-24T11:26:45.823Z,24.10
2019-01-24T11:29:20.308Z,24.53
2019-01-24T11:31:53.564Z,24.10
2019-01-24T11:34:26.267Z,25.33
2019-01-24T11:37:06.472Z,25.77
2019-01-24T11:39:40.926Z,23.73
2019-01-24T11:42:13.911Z,23.97
2019-01-24T11:44:45.086Z,25.10
2019-01-24T11:47:20.633Z,23.37
2019-01-24T11:50:02.694Z,22.80
2019-01-24T11:52:33.758Z,24.53
2019-01-24T11:55:13.282Z,23.87
2019-01-24T11:57:48.303Z,24.07
2019-01-24T12:00:26.535Z,22.97
2019-01-24T12:03:34.116Z,24.90
2019-01-24T12:06:33.572Z,24.20
2019-01-24T12:09:16.692Z,24.40
2019-01-24T12:11:56.596Z,25.73
2019-01-24T12:14:28.288Z,23.97
2019-01-24T12:17:04.430Z,24.70
2019-01-24T12:20:05.319Z,24.97
2019-01-24T12:22:37.830Z,24.33
2019-01-24T12:25:55.162Z,22.50
2019-01-24T12:28:25.743Z,24.57
2019-01-24T12:30:58.569Z,25.43
2019-01-24T12:33:42.306Z,24.83
2019-01-24T12:36:14.036Z,22.10
2019-01-24T12:38:50.212Z,23.03
2019-01-24T12:41:46.525Z,23.07
2019-01-24T12:44:19.133Z,23.40
2019-01-24T12:46:50.147Z,23.00
2019-01-24T12:49:21.310Z,23.57
2019-01-24T12:53:22.297Z,23.10
2019-01-24T13:00:49.917Z,23.23
2019-01-24T13:03:27.970Z,22.23
2019-01-24T13:05:59.534Z,22.57
2019-01-24T13:08:38.779Z,23.37
2019-01-24T13:11:15.272Z,24.60
2019-01-24T13:13:50.808Z,25.53
2019-01-24T13:16:24.305Z,23.33
2019-01-24T13:19:02.971Z,24.40
2019-01-24T13:21:54.177Z,23.83
2019-01-24T13:24:45.805Z,23.77
2019-01-24T13:31:09.515Z,24.63
2019-01-24T13:34:16.142Z,23.13
2019-01-24T13:37:51.827Z,22.93
2019-01-24T13:40:34.069Z,22.73
2019-01-24T13:43:05.182Z,23.90
2019-01-24T13:45:38.826Z,23.23
2019-01-24T13:48:11.748Z,23.03
2019-01-24T13:51:01.089Z,23.50
2019-01-24T13:53:33.919Z,22.33
2019-01-24T13:56:04.600Z,22.57
2019-01-24T13:58:41.174Z,21.77
2019-01-24T14:01:11.895Z,23.70
2019-01-24T14:04:03.862Z,22.07
2019-01-24T14:06:35.808Z,22.27
2019-01-24T14:09:35.962Z,22.00
2019-01-24T14:12:08.635Z,23.23
2019-01-24T14:14:45.511Z,23.90
2019-01-24T14:17:38.249Z,22.23
2019-01-24T14:20:56.276Z,21.30
2019-01-24T14:24:19.536Z,22.07
2019-01-24T14:28:17.429Z,19.83
2019-01-24T14:32:29.945Z,20.83
2019-01-24T14:35:06.829Z,21.03
2019-01-24T14:38:43.326Z,21.03
2019-01-24T14:54:52.041Z,21.23
2019-01-24T14:58:08.796Z,21.33
2019-01-24T15:04:53.319Z,22.23
2019-01-24T15:07:47.151Z,21.13
2019-01-24T15:14:41.488Z,19.80
2019-01-24T15:21:47.865Z,22.57
2019-01-24T15:25:25.951Z,21.13
2019-01-24T15:27:55.452Z,20.67
2019-01-24T15:33:55.016Z,22.93
2019-01-24T15:36:28.841Z,22.60
2019-01-24T15:39:16.066Z,23.03
2019-01-24T15:41:48.976Z,22.53
2019-01-24T15:44:23.639Z,21.50
2019-01-24T15:46:54.870Z,22.27
2019-01-24T15:49:27.631Z,23.00
2019-01-24T15:51:58.405Z,23.40
2019-01-24T15:54:29.550Z,23.67
2019-01-24T15:57:10.317Z,22.50
2019-01-24T15:59:53.091Z,22.80
2019-01-24T16:02:23.777Z,22.33
2019-01-24T16:04:57.485Z,23.00
2019-01-24T16:08:31.266Z,23.57
2019-01-24T16:11:27.209Z,22.80
2019-01-24T16:14:01.059Z,24.33
2019-01-24T16:16:34.162Z,23.90
2019-01-24T16:19:05.571Z,23.73
2019-01-24T16:21:36.667Z,24.13
2019-01-24T16:24:07.915Z,24.33
2019-01-24T16:26:38.929Z,25.30
2019-01-24T16:29:14.499Z,25.13
2019-01-24T16:31:47.590Z,25.20
2019-01-24T16:34:17.967Z,24.53
2019-01-24T16:36:50.279Z,25.23
2019-01-24T16:39:29.805Z,24.77
2019-01-24T16:42:02.048Z,25.30
2019-01-24T16:44:56.586Z,25.43
2019-01-24T16:47:20.840Z,25.97
2019-01-24T16:49:55.373Z,25.43
2019-01-24T16:52:26.148Z,23.97
2019-01-24T16:55:04.461Z,27.60
2019-01-24T16:57:41.670Z,25.57
2019-01-24T17:00:26.362Z,25.33
2019-01-24T17:03:01.237Z,26.10
2019-01-24T17:06:48.879Z,24.93
2019-01-24T17:09:23.512Z,23.47
2019-01-24T17:12:06.263Z,23.07
2019-01-24T17:14:50.472Z,24.17
2019-01-24T17:17:21.017Z,25.63
2019-01-24T17:19:51.662Z,24.50
2019-01-24T17:22:25.322Z,24.87
2019-01-24T17:24:55.953Z,25.93
2019-01-24T17:27:27.092Z,26.47
2019-01-24T17:29:59.307Z,26.73
2019-01-24T17:32:37.983Z,25.70
2019-01-24T17:35:10.164Z,27.67
2019-01-24T17:37:43.695Z,25.60
2019-01-24T17:40:29.598Z,26.47
2019-01-24T17:43:07.477Z,24.33
2019-01-24T17:45:38.684Z,26.30
2019-01-24T17:48:09.929Z,23.80
2019-01-24T17:50:40.768Z,23.93
2019-01-24T17:53:12.454Z,23.97
2019-01-24T17:55:46.926Z,24.73
2019-01-24T17:58:19.183Z,24.37
2019-01-24T18:01:03.238Z,24.70
2019-01-24T18:03:35.799Z,22.83
2019-01-24T18:06:07.116Z,23.50
2019-01-24T18:08:40.442Z,25.40
2019-01-24T18:11:14.118Z,24.97
2019-01-24T18:13:48.710Z,24.60
2019-01-24T18:16:31.514Z,23.97
2019-01-24T18:19:02.209Z,25.93
2019-01-24T18:21:33.096Z,24.27
2019-01-24T18:24:18.689Z,24.47
2019-01-24T18:27:07.345Z,24.60
2019-01-24T18:29:56.577Z,25.97
2019-01-24T18:32:31.436Z,24.83
2019-01-24T18:35:05.836Z,23.47
2019-01-24T18:37:36.288Z,25.87
2019-01-24T18:40:16.420Z,26.80
2019-01-24T18:42:49.142Z,25.57
2019-01-24T18:45:33.759Z,26.03
2019-01-24T18:48:04.382Z,25.87
2019-01-24T18:50:37.772Z,25.13
2019-01-24T18:53:09.883Z,24.77
2019-01-24T18:55:41.446Z,26.33
2019-01-24T18:58:17.647Z,26.47
2019-01-24T19:00:51.112Z,26.87
2019-01-24T19:03:37.496Z,25.73
2019-01-24T19:06:11.179Z,27.17
2019-01-24T19:08:46.009Z,25.93
2019-01-24T19:11:21.772Z,25.87
2019-01-24T19:14:19.605Z,25.93
2019-01-24T19:17:23.367Z,25.57
2019-01-24T19:20:12.354Z,24.70
2019-01-24T19:22:45.438Z,23.93
2019-01-24T19:25:20.126Z,24.60
2019-01-24T19:27:51.141Z,25.80
2019-01-24T19:30:36.421Z,24.97
2019-01-24T19:33:45.251Z,26.07
2019-01-24T19:36:29.040Z,25.30
2019-01-24T19:38:59.744Z,24.10
2019-01-24T19:42:00.540Z,24.93
2019-01-24T19:44:42.440Z,24.20
2019-01-24T19:47:13.045Z,26.73
2019-01-24T19:49:51.598Z,25.10
2019-01-24T19:52:22.819Z,25.23
2019-01-24T19:54:56.316Z,25.10
2019-01-24T19:57:27.101Z,24.80
2019-01-24T19:59:57.811Z,27.17
2019-01-24T20:02:28.631Z,25.67
2019-01-24T20:05:09.628Z,26.60
2019-01-24T20:07:40.191Z,26.70
2019-01-24T20:10:15.395Z,29.50
2019-01-24T20:12:48.544Z,28.20
2019-01-24T20:15:25.294Z,27.50
2019-01-24T20:17:55.822Z,28.43
2019-01-24T20:20:29.241Z,27.27
2019-01-24T20:23:04.149Z,27.20
2019-01-24T20:25:35.140Z,28.00
2019-01-24T20:28:06.291Z,26.97
2019-01-24T20:30:39.582Z,26.93
2019-01-24T20:33:10.650Z,27.60
2019-01-24T20:35:57.743Z,29.20
2019-01-24T20:38:31.163Z,26.80
2019-01-24T20:41:09.516Z,27.33
2019-01-24T20:43:41.961Z,27.03
2019-01-24T20:46:15.386Z,28.63
2019-01-24T20:48:46.414Z,29.40
2019-01-24T20:51:20.024Z,29.07
2019-01-24T20:53:56.364Z,28.73
2019-01-24T20:56:26.959Z,28.53
2019-01-24T20:58:57.973Z,27.60
2019-01-24T21:01:28.510Z,28.30
2019-01-24T21:04:01.098Z,28.53
2019-01-24T21:06:56.331Z,30.10
2019-01-24T21:09:27.428Z,28.60
2019-01-24T21:12:01.345Z,28.60
2019-01-24T21:14:34.999Z,29.60
2019-01-24T21:17:08.887Z,30.43
2019-01-24T21:19:40.361Z,30.30
2019-01-24T21:22:11.455Z,29.10
2019-01-24T21:24:42.187Z,28.67
2019-01-24T21:27:15.319Z,29.47
2019-01-24T21:29:52.922Z,29.67
2019-01-24T21:32:23.155Z,30.13
2019-01-24T21:34:54.705Z,29.07
2019-01-24T21:37:50.866Z,29.97
2019-01-24T21:40:28.513Z,29.77
2019-01-24T21:43:35.357Z,31.23
2019-01-24T21:46:06.480Z,29.90
2019-01-24T21:48:37.249Z,29.07
2019-01-24T21:51:12.337Z,31.57
2019-01-24T21:53:55.551Z,30.63
2019-01-24T21:56:32.812Z,30.27
2019-01-24T21:59:03.757Z,30.73
2019-01-24T22:01:34.600Z,31.07
2019-01-24T22:04:11.421Z,30.37
2019-01-24T22:06:45.092Z,28.93
2019-01-24T22:09:15.688Z,30.43
2019-01-24T22:11:46.515Z,31.03
2019-01-24T22:14:19.418Z,30.50
2019-01-24T22:16:52.886Z,30.90
2019-01-24T22:19:23.442Z,29.87
2019-01-24T22:21:54.905Z,31.60
2019-01-24T22:24:25.424Z,30.43
2019-01-24T22:26:58.984Z,29.97
2019-01-24T22:29:30.722Z,31.50
2019-01-24T22:32:02.427Z,30.43
2019-01-24T22:34:35.510Z,29.77
2019-01-24T22:37:08.551Z,30.40
2019-01-24T22:39:45.100Z,29.77
2019-01-24T22:42:16.987Z,30.50
2019-01-24T22:44:51.198Z,30.47
2019-01-24T22:47:29.652Z,31.70
2019-01-24T22:50:00.490Z,32.57
2019-01-24T22:52:42.105Z,31.23
2019-01-24T22:55:14.373Z,31.40
2019-01-24T22:57:48.343Z,31.40
2019-01-24T23:00:47.410Z,31.67
2019-01-24T23:03:26.701Z,30.57
2019-01-24T23:05:57.801Z,30.97
2019-01-24T23:08:36.320Z,31.87
2019-01-24T23:11:08.623Z,30.43
2019-01-24T23:13:39.365Z,30.63
2019-01-24T23:16:09.779Z,31.67
2019-01-24T23:18:40.725Z,32.30
2019-01-24T23:21:13.480Z,31.40
2019-01-24T23:23:43.847Z,31.97
2019-01-24T23:26:15.026Z,31.10
2019-01-24T23:28:45.616Z,33.23
2019-01-24T23:31:16.090Z,31.27
2019-01-24T23:33:48.476Z,33.10
2019-01-24T23:36:29.711Z,33.17
2019-01-24T23:38:58.627Z,33.77
2019-01-24T23:41:43.395Z,31.90
2019-01-24T23:44:16.658Z,34.00
2019-01-24T23:46:48.848Z,32.47
2019-01-24T23:49:20.603Z,33.30
2019-01-24T23:51:54.662Z,32.50
2019-01-24T23:54:26.831Z,34.77
2019-01-24T23:56:57.560Z,31.83
2019-01-24T23:59:30.199Z,32.67
